createdAt,value
2022-10-02T00:00:38.436Z,16.50
2022-10-02T00:01:38.457Z,16.60
2022-10-02T00:02:38.411Z,16.70
2022-10-02T00:03:38.394Z,16.70
2022-10-02T00:04:38.457Z,17.00
2022-10-02T00:05:38.399Z,16.60
2022-10-02T00:06:38.584Z,17.10
2022-10-02T00:07:38.346Z,16.80
2022-10-02T00:08:38.366Z,16.80
2022-10-02T00:09:38.324Z,16.90
2022-10-02T00:10:38.308Z,16.80
2022-10-02T00:11:38.296Z,17.10
2022-10-02T00:12:38.274Z,17.40
2022-10-02T00:13:38.262Z,16.30
2022-10-02T00:14:38.277Z,16.60
2022-10-02T00:15:38.297Z,16.80
2022-10-02T00:16:38.803Z,17.30
2022-10-02T00:17:38.217Z,16.70
2022-10-02T00:18:38.207Z,16.50
2022-10-02T00:19:38.190Z,16.20
2022-10-02T00:20:38.196Z,16.60
2022-10-02T00:21:38.177Z,16.30
2022-10-02T00:22:38.157Z,16.40
2022-10-02T00:23:38.183Z,16.20
2022-10-02T00:24:38.135Z,16.70
2022-10-02T00:25:38.148Z,16.40
2022-10-02T00:26:38.432Z,16.60
2022-10-02T00:27:38.089Z,16.10
2022-10-02T00:28:38.067Z,16.50
2022-10-02T00:29:38.046Z,16.40
2022-10-02T00:30:38.066Z,16.30
2022-10-02T00:31:38.076Z,16.40
2022-10-02T00:32:38.026Z,16.00
2022-10-02T00:33:37.998Z,16.20
2022-10-02T00:34:37.993Z,15.70
2022-10-02T00:35:37.994Z,15.90
2022-10-02T00:36:38.231Z,16.20
2022-10-02T00:37:37.959Z,15.70
2022-10-02T00:38:37.952Z,16.50
2022-10-02T00:39:37.944Z,16.20
2022-10-02T00:40:37.928Z,16.30
2022-10-02T00:41:37.906Z,16.40
2022-10-02T00:42:37.991Z,16.30
2022-10-02T00:43:37.880Z,16.70
2022-10-02T00:44:37.867Z,15.80
2022-10-02T00:45:37.908Z,16.20
2022-10-02T00:46:38.249Z,16.00
2022-10-02T00:47:38.200Z,15.90
2022-10-02T00:48:37.827Z,16.20
2022-10-02T00:49:37.852Z,15.90
2022-10-02T00:50:37.789Z,16.10
2022-10-02T00:51:37.788Z,15.90
2022-10-02T00:52:37.778Z,16.00
2022-10-02T00:53:37.754Z,15.80
2022-10-02T00:54:37.737Z,16.00
2022-10-02T00:55:37.740Z,15.80
2022-10-02T00:56:38.118Z,16.10
2022-10-02T00:57:37.697Z,16.00
2022-10-02T00:58:37.696Z,16.00
2022-10-02T00:59:37.680Z,15.80
2022-10-02T01:00:37.700Z,16.30
2022-10-02T01:01:37.659Z,15.30
2022-10-02T01:02:37.670Z,15.80
2022-10-02T01:03:37.621Z,16.30
2022-10-02T01:04:37.608Z,16.40
2022-10-02T01:05:37.599Z,16.20
2022-10-02T01:06:44.599Z,15.60
2022-10-02T01:07:37.580Z,16.70
2022-10-02T01:08:37.550Z,15.70
2022-10-02T01:09:37.529Z,16.20
2022-10-02T01:10:37.521Z,15.40
2022-10-02T01:11:37.498Z,16.40
2022-10-02T01:12:37.501Z,16.80
2022-10-02T01:13:37.491Z,17.60
2022-10-02T01:14:37.481Z,16.10
2022-10-02T01:15:37.469Z,16.50
2022-10-02T01:16:37.909Z,16.10
2022-10-02T01:17:37.439Z,16.00
2022-10-02T01:18:37.441Z,16.40
2022-10-02T01:19:37.418Z,16.80
2022-10-02T01:20:37.451Z,16.60
2022-10-02T01:21:37.373Z,16.90
2022-10-02T01:22:37.359Z,16.60
2022-10-02T01:23:37.387Z,16.60
2022-10-02T01:24:37.369Z,16.60
2022-10-02T01:25:37.321Z,16.40
2022-10-02T01:26:37.644Z,16.30
2022-10-02T01:27:39.424Z,16.60
2022-10-02T01:28:37.319Z,16.60
2022-10-02T01:29:37.283Z,17.00
2022-10-02T01:30:37.301Z,16.80
2022-10-02T01:31:37.308Z,16.90
2022-10-02T01:32:37.271Z,16.70
2022-10-02T01:33:37.311Z,16.40
2022-10-02T01:34:37.222Z,16.70
2022-10-02T01:35:37.252Z,16.90
2022-10-02T01:36:37.604Z,16.50
2022-10-02T01:37:37.161Z,16.40
2022-10-02T01:38:37.161Z,16.50
2022-10-02T01:39:37.151Z,16.50
2022-10-02T01:40:37.141Z,16.20
2022-10-02T01:41:37.135Z,16.60
2022-10-02T01:42:37.112Z,16.90
2022-10-02T01:43:37.123Z,16.40
2022-10-02T01:44:37.091Z,17.10
2022-10-02T01:45:37.093Z,16.80
2022-10-02T01:46:37.346Z,17.90
2022-10-02T01:47:37.039Z,16.90
2022-10-02T01:48:37.043Z,16.30
2022-10-02T01:49:37.022Z,16.90
2022-10-02T01:50:37.012Z,16.50
2022-10-02T01:51:36.991Z,16.60
2022-10-02T01:52:36.978Z,16.90
2022-10-02T01:53:36.985Z,16.30
2022-10-02T01:54:36.973Z,16.60
2022-10-02T01:55:36.950Z,15.90
2022-10-02T01:56:37.180Z,16.00
2022-10-02T01:57:36.922Z,16.70
2022-10-02T01:58:36.922Z,16.30
2022-10-02T01:59:36.892Z,16.40
2022-10-02T02:00:36.942Z,16.30
2022-10-02T02:01:36.873Z,16.20
2022-10-02T02:02:36.886Z,16.30
2022-10-02T02:03:36.840Z,16.30
2022-10-02T02:04:36.831Z,17.10
2022-10-02T02:05:36.811Z,16.00
2022-10-02T02:06:37.018Z,16.60
2022-10-02T02:07:36.781Z,16.20
2022-10-02T02:08:36.791Z,16.30
2022-10-02T02:09:36.784Z,16.30
2022-10-02T02:10:36.752Z,16.00
2022-10-02T02:11:36.753Z,16.90
2022-10-02T02:12:36.724Z,17.00
2022-10-02T02:13:36.714Z,16.50
2022-10-02T02:14:36.695Z,17.40
2022-10-02T02:15:36.694Z,16.90
2022-10-02T02:16:36.980Z,16.90
2022-10-02T02:17:36.673Z,17.30
2022-10-02T02:18:36.649Z,17.20
2022-10-02T02:19:36.631Z,16.90
2022-10-02T02:20:36.641Z,16.50
2022-10-02T02:21:36.633Z,17.70
2022-10-02T02:22:36.604Z,16.90
2022-10-02T02:23:36.585Z,17.70
2022-10-02T02:24:36.574Z,16.90
2022-10-02T02:25:36.563Z,16.80
2022-10-02T02:26:36.803Z,16.70
2022-10-02T02:27:36.545Z,17.30
2022-10-02T02:28:36.524Z,16.90
2022-10-02T02:29:36.506Z,16.80
2022-10-02T02:30:36.493Z,17.20
2022-10-02T02:31:36.575Z,17.20
2022-10-02T02:32:36.484Z,17.00
2022-10-02T02:33:36.460Z,17.10
2022-10-02T02:34:36.441Z,17.30
2022-10-02T02:35:36.424Z,16.80
2022-10-02T02:36:36.718Z,16.70
2022-10-02T02:37:36.423Z,16.30
2022-10-02T02:38:36.392Z,17.10
2022-10-02T02:39:36.381Z,16.50
2022-10-02T02:40:36.362Z,17.20
2022-10-02T02:41:36.355Z,17.00
2022-10-02T02:42:36.364Z,17.20
2022-10-02T02:43:36.324Z,17.70
2022-10-02T02:44:36.317Z,16.90
2022-10-02T02:45:36.324Z,17.60
2022-10-02T02:46:36.629Z,17.00
2022-10-02T02:47:36.272Z,17.40
2022-10-02T02:48:36.313Z,16.90
2022-10-02T02:49:36.255Z,17.10
2022-10-02T02:50:36.243Z,17.50
2022-10-02T02:51:36.234Z,17.10
2022-10-02T02:52:36.214Z,17.10
2022-10-02T02:53:36.216Z,17.80
2022-10-02T02:54:36.205Z,17.40
2022-10-02T02:55:37.028Z,17.50
2022-10-02T02:56:36.518Z,17.50
2022-10-02T02:57:36.143Z,17.30
2022-10-02T02:58:36.141Z,17.00
2022-10-02T02:59:36.113Z,17.60
2022-10-02T03:00:36.104Z,17.20
2022-10-02T03:01:36.092Z,17.20
2022-10-02T03:02:36.152Z,17.60
2022-10-02T03:03:36.073Z,16.90
2022-10-02T03:04:36.044Z,17.60
2022-10-02T03:05:36.055Z,16.70
2022-10-02T03:06:36.349Z,17.40
2022-10-02T03:07:36.075Z,16.90
2022-10-02T03:08:36.016Z,17.60
2022-10-02T03:09:36.005Z,17.00
2022-10-02T03:10:35.988Z,17.60
2022-10-02T03:11:35.974Z,17.10
2022-10-02T03:12:35.957Z,17.00
2022-10-02T03:13:35.942Z,17.30
2022-10-02T03:14:35.947Z,17.70
2022-10-02T03:15:35.961Z,17.70
2022-10-02T03:16:36.196Z,17.60
2022-10-02T03:17:35.889Z,18.00
2022-10-02T03:18:35.875Z,17.80
2022-10-02T03:19:35.863Z,18.20
2022-10-02T03:20:35.865Z,18.10
2022-10-02T03:21:35.838Z,18.60
2022-10-02T03:22:35.825Z,18.60
2022-10-02T03:23:35.816Z,18.70
2022-10-02T03:24:35.796Z,17.80
2022-10-02T03:25:35.796Z,18.10
2022-10-02T03:26:36.101Z,17.80
2022-10-02T03:27:35.755Z,18.00
2022-10-02T03:28:54.909Z,18.10
2022-10-02T03:29:36.747Z,17.90
2022-10-02T03:30:35.715Z,18.20
2022-10-02T03:31:35.732Z,18.00
2022-10-02T03:32:35.704Z,17.80
2022-10-02T03:33:35.695Z,17.90
2022-10-02T03:34:35.664Z,17.60
2022-10-02T03:35:35.655Z,17.80
2022-10-02T03:36:35.920Z,17.70
2022-10-02T03:37:35.643Z,17.70
2022-10-02T03:38:35.616Z,18.10
2022-10-02T03:39:35.625Z,18.20
2022-10-02T03:40:35.595Z,18.30
2022-10-02T03:41:35.606Z,18.20
2022-10-02T03:42:35.597Z,18.50
2022-10-02T03:43:35.556Z,18.40
2022-10-02T03:44:35.557Z,18.90
2022-10-02T03:45:52.001Z,18.30
2022-10-02T03:46:36.914Z,18.30
2022-10-02T03:47:35.503Z,18.30
2022-10-02T03:48:35.486Z,18.60
2022-10-02T03:49:35.484Z,18.80
2022-10-02T03:50:36.566Z,18.10
2022-10-02T03:51:35.456Z,19.00
2022-10-02T03:52:35.446Z,18.40
2022-10-02T03:53:35.453Z,18.50
2022-10-02T03:54:35.407Z,18.30
2022-10-02T03:55:35.397Z,18.20
2022-10-02T03:56:35.621Z,18.30
2022-10-02T03:57:35.383Z,17.80
2022-10-02T03:58:35.356Z,18.00
2022-10-02T03:59:35.354Z,18.30
2022-10-02T04:00:35.324Z,18.00
2022-10-02T04:01:35.381Z,18.70
2022-10-02T04:02:35.317Z,18.40
2022-10-02T04:03:35.324Z,18.80
2022-10-02T04:04:35.277Z,19.00
2022-10-02T04:05:35.269Z,17.90
2022-10-02T04:06:35.569Z,18.90
2022-10-02T04:07:35.268Z,18.40
2022-10-02T04:08:35.227Z,17.90
2022-10-02T04:09:35.252Z,18.30
2022-10-02T04:10:35.198Z,18.90
2022-10-02T04:11:35.185Z,18.50
2022-10-02T04:12:35.177Z,18.90
2022-10-02T04:13:35.175Z,18.50
2022-10-02T04:14:35.138Z,18.70
2022-10-02T04:15:35.137Z,18.90
2022-10-02T04:16:35.483Z,18.10
2022-10-02T04:17:35.111Z,18.50
2022-10-02T04:18:35.107Z,18.50
2022-10-02T04:19:35.088Z,18.50
2022-10-02T04:20:35.078Z,18.70
2022-10-02T04:21:35.085Z,18.60
2022-10-02T04:22:35.048Z,18.80
2022-10-02T04:23:35.047Z,17.80
2022-10-02T04:24:35.027Z,18.60
2022-10-02T04:25:35.006Z,18.50
2022-10-02T04:26:35.303Z,18.50
2022-10-02T04:27:34.977Z,18.40
2022-10-02T04:28:34.978Z,18.60
2022-10-02T04:29:34.956Z,18.50
2022-10-02T04:30:34.937Z,18.50
2022-10-02T04:31:34.976Z,18.80
2022-10-02T04:32:34.915Z,18.70
2022-10-02T04:33:38.365Z,18.50
2022-10-02T04:34:34.898Z,18.90
2022-10-02T04:35:34.877Z,19.00
2022-10-02T04:36:35.213Z,19.00
2022-10-02T04:37:34.878Z,18.80
2022-10-02T04:38:34.849Z,19.00
2022-10-02T04:39:34.827Z,19.10
2022-10-02T04:40:34.827Z,18.40
2022-10-02T04:41:34.787Z,19.00
2022-10-02T04:42:34.776Z,18.80
2022-10-02T04:43:34.777Z,18.20
2022-10-02T04:44:34.756Z,18.90
2022-10-02T04:45:34.746Z,18.20
2022-10-02T04:46:35.001Z,18.40
2022-10-02T04:47:34.728Z,17.90
2022-10-02T04:48:34.707Z,18.80
2022-10-02T04:49:34.718Z,18.50
2022-10-02T04:50:34.691Z,19.20
2022-10-02T04:51:34.684Z,18.30
2022-10-02T04:52:34.661Z,17.90
2022-10-02T04:53:34.647Z,18.40
2022-10-02T04:54:34.656Z,18.50
2022-10-02T04:55:34.667Z,18.10
2022-10-02T04:56:34.906Z,18.20
2022-10-02T04:57:34.641Z,18.20
2022-10-02T04:58:34.587Z,17.80
2022-10-02T04:59:34.568Z,18.60
2022-10-02T05:00:34.613Z,18.10
2022-10-02T05:01:34.539Z,19.20
2022-10-02T05:02:34.540Z,17.80
2022-10-02T05:03:34.521Z,18.50
2022-10-02T05:04:34.498Z,18.40
2022-10-02T05:05:34.495Z,19.00
2022-10-02T05:06:34.767Z,18.10
2022-10-02T05:07:34.469Z,18.60
2022-10-02T05:08:34.447Z,18.90
2022-10-02T05:09:34.437Z,18.80
2022-10-02T05:10:34.428Z,18.80
2022-10-02T05:11:34.415Z,18.70
2022-10-02T05:12:34.409Z,18.70
2022-10-02T05:13:34.389Z,18.50
2022-10-02T05:14:34.371Z,18.70
2022-10-02T05:15:34.363Z,18.80
2022-10-02T05:16:34.800Z,19.40
2022-10-02T05:17:34.338Z,18.90
2022-10-02T05:18:34.318Z,18.40
2022-10-02T05:19:34.308Z,18.60
2022-10-02T05:20:34.289Z,19.40
2022-10-02T05:21:34.298Z,18.70
2022-10-02T05:22:34.309Z,18.60
2022-10-02T05:23:34.257Z,18.80
2022-10-02T05:24:34.237Z,18.40
2022-10-02T05:25:34.227Z,18.10
2022-10-02T05:26:34.470Z,18.10
2022-10-02T05:27:34.210Z,18.40
2022-10-02T05:28:34.213Z,17.60
2022-10-02T05:29:34.182Z,18.70
2022-10-02T05:30:34.168Z,18.60
2022-10-02T05:31:34.795Z,18.10
2022-10-02T05:32:34.361Z,17.70
2022-10-02T05:33:34.139Z,18.70
2022-10-02T05:34:34.117Z,18.20
2022-10-02T05:35:34.112Z,18.60
2022-10-02T05:36:34.344Z,18.10
2022-10-02T05:37:34.086Z,18.80
2022-10-02T05:38:34.520Z,18.40
2022-10-02T05:39:34.048Z,18.00
2022-10-02T05:40:34.218Z,17.70
2022-10-02T05:41:34.019Z,17.60
2022-10-02T05:42:34.036Z,17.80
2022-10-02T05:43:33.996Z,17.80
2022-10-02T05:44:33.977Z,17.50
2022-10-02T05:45:33.990Z,17.40
2022-10-02T05:46:34.235Z,17.10
2022-10-02T05:47:33.971Z,17.80
2022-10-02T05:48:33.963Z,17.60
2022-10-02T05:49:33.928Z,17.90
2022-10-02T05:50:33.962Z,18.00
2022-10-02T05:51:37.688Z,18.30
2022-10-02T05:52:34.265Z,17.80
2022-10-02T05:53:33.869Z,18.50
2022-10-02T05:54:33.850Z,18.20
2022-10-02T05:55:33.847Z,17.60
2022-10-02T05:56:34.165Z,17.20
2022-10-02T05:57:33.818Z,18.50
2022-10-02T05:58:33.844Z,17.50
2022-10-02T05:59:33.790Z,17.30
2022-10-02T06:00:33.786Z,16.80
2022-10-02T06:01:33.830Z,17.40
2022-10-02T06:02:38.820Z,17.50
2022-10-02T06:03:34.752Z,17.70
2022-10-02T06:04:33.737Z,17.90
2022-10-02T06:05:33.721Z,17.60
2022-10-02T06:06:34.023Z,17.60
2022-10-02T06:07:33.689Z,17.70
2022-10-02T06:08:34.003Z,17.70
2022-10-02T06:09:33.660Z,17.60
2022-10-02T06:10:33.674Z,17.90
2022-10-02T06:11:33.646Z,17.90
2022-10-02T06:12:33.644Z,16.90
2022-10-02T06:13:33.634Z,17.40
2022-10-02T06:14:33.643Z,17.00
2022-10-02T06:15:33.663Z,17.20
2022-10-02T06:16:33.793Z,16.90
2022-10-02T06:17:33.561Z,17.10
2022-10-02T06:18:33.582Z,17.00
2022-10-02T06:19:33.541Z,16.70
2022-10-02T06:20:33.521Z,17.30
2022-10-02T06:21:33.510Z,16.50
2022-10-02T06:22:33.501Z,16.40
2022-10-02T06:23:33.492Z,17.20
2022-10-02T06:24:33.471Z,17.10
2022-10-02T06:25:33.461Z,16.40
2022-10-02T06:26:33.565Z,16.30
2022-10-02T06:27:33.459Z,16.10
2022-10-02T06:28:33.419Z,16.30
2022-10-02T06:29:33.411Z,16.20
2022-10-02T06:30:33.390Z,16.10
2022-10-02T06:31:33.453Z,15.80
2022-10-02T06:32:33.362Z,16.40
2022-10-02T06:33:33.362Z,15.80
2022-10-02T06:34:33.351Z,16.20
2022-10-02T06:35:33.333Z,15.20
2022-10-02T06:36:33.512Z,15.80
2022-10-02T06:37:33.312Z,15.80
2022-10-02T06:38:33.301Z,15.60
2022-10-02T06:39:33.318Z,15.50
2022-10-02T06:40:33.272Z,15.70
2022-10-02T06:41:33.280Z,15.60
2022-10-02T06:42:33.231Z,16.20
2022-10-02T06:43:33.211Z,16.00
2022-10-02T06:44:33.221Z,15.60
2022-10-02T06:45:33.254Z,15.80
2022-10-02T06:46:33.190Z,15.50
2022-10-02T06:47:33.160Z,15.60
2022-10-02T06:48:33.164Z,16.10
2022-10-02T06:49:33.153Z,15.50
2022-10-02T06:50:33.152Z,16.90
2022-10-02T06:51:33.122Z,15.90
2022-10-02T06:52:37.755Z,15.80
2022-10-02T06:53:34.092Z,15.90
2022-10-02T06:54:33.085Z,15.70
2022-10-02T06:55:33.117Z,16.40
2022-10-02T06:56:33.063Z,16.20
2022-10-02T06:57:33.060Z,15.90
2022-10-02T06:58:33.032Z,15.40
2022-10-02T06:59:33.001Z,16.30
2022-10-02T07:00:33.051Z,15.50
2022-10-02T07:01:32.990Z,15.80
2022-10-02T07:02:33.067Z,15.80
2022-10-02T07:03:32.963Z,15.40
2022-10-02T07:04:32.953Z,16.10
2022-10-02T07:05:32.945Z,15.60
2022-10-02T07:06:32.982Z,15.10
2022-10-02T07:07:40.025Z,15.80
2022-10-02T07:08:32.905Z,15.90
2022-10-02T07:09:32.886Z,15.40
2022-10-02T07:10:32.895Z,15.40
2022-10-02T07:11:32.868Z,15.90
2022-10-02T07:12:32.858Z,15.40
2022-10-02T07:13:32.834Z,15.30
2022-10-02T07:14:32.828Z,15.50
2022-10-02T07:15:32.899Z,15.80
2022-10-02T07:16:32.841Z,15.20
2022-10-02T07:17:32.797Z,14.80
2022-10-02T07:18:33.368Z,15.00
2022-10-02T07:19:32.777Z,14.80
2022-10-02T07:20:32.808Z,15.00
2022-10-02T07:21:32.727Z,15.20
2022-10-02T07:22:44.519Z,15.40
2022-10-02T07:23:33.741Z,14.50
2022-10-02T07:24:32.726Z,14.80
2022-10-02T07:25:32.675Z,14.60
2022-10-02T07:26:32.687Z,14.30
2022-10-02T07:27:32.649Z,14.50
2022-10-02T07:28:33.658Z,14.50
2022-10-02T07:29:32.638Z,14.60
2022-10-02T07:30:32.624Z,14.60
2022-10-02T07:31:32.752Z,14.40
2022-10-02T07:32:32.601Z,14.10
2022-10-02T07:33:32.593Z,14.00
2022-10-02T07:34:32.578Z,13.90
2022-10-02T07:35:32.548Z,13.90
2022-10-02T07:36:32.563Z,14.00
2022-10-02T07:37:32.529Z,13.90
2022-10-02T07:38:32.548Z,14.00
2022-10-02T07:39:32.512Z,14.20
2022-10-02T07:40:32.496Z,14.30
2022-10-02T07:41:32.497Z,14.10
2022-10-02T07:42:32.476Z,13.60
2022-10-02T07:43:32.469Z,13.60
2022-10-02T07:44:32.449Z,13.60
2022-10-02T07:45:32.470Z,13.90
2022-10-02T07:46:32.429Z,14.10
2022-10-02T07:47:32.426Z,13.50
2022-10-02T07:48:32.402Z,13.30
2022-10-02T07:49:32.411Z,13.20
2022-10-02T07:50:32.370Z,13.20
2022-10-02T07:51:32.349Z,14.70
2022-10-02T07:52:32.336Z,13.50
2022-10-02T07:53:32.330Z,13.80
2022-10-02T07:54:32.360Z,13.50
2022-10-02T07:55:32.300Z,13.70
2022-10-02T07:56:32.308Z,13.30
2022-10-02T07:57:32.269Z,13.10
2022-10-02T07:58:32.279Z,13.30
2022-10-02T07:59:32.251Z,14.50
2022-10-02T08:00:32.246Z,13.20
2022-10-02T08:01:32.230Z,12.90
2022-10-02T08:02:32.316Z,12.90
2022-10-02T08:03:32.250Z,12.50
2022-10-02T08:04:36.635Z,12.80
2022-10-02T08:05:33.169Z,13.10
2022-10-02T08:06:32.162Z,13.00
2022-10-02T08:07:32.151Z,12.40
2022-10-02T08:08:32.150Z,12.30
2022-10-02T08:09:32.131Z,12.30
2022-10-02T08:10:32.112Z,12.50
2022-10-02T08:11:32.097Z,12.20
2022-10-02T08:12:32.097Z,12.20
2022-10-02T08:13:32.071Z,12.50
2022-10-02T08:14:32.097Z,12.50
2022-10-02T08:15:32.030Z,12.20
2022-10-02T08:16:32.084Z,12.10
2022-10-02T08:17:32.010Z,12.00
2022-10-02T08:18:35.739Z,12.20
2022-10-02T08:19:31.991Z,12.40
2022-10-02T08:20:31.971Z,11.90
2022-10-02T08:21:31.951Z,12.50
2022-10-02T08:22:31.940Z,12.20
2022-10-02T08:23:31.943Z,12.20
2022-10-02T08:24:31.943Z,11.70
2022-10-02T08:25:31.914Z,11.60
2022-10-02T08:26:35.572Z,11.20
2022-10-02T08:27:31.885Z,11.30
2022-10-02T08:28:31.977Z,11.20
2022-10-02T08:29:31.862Z,11.00
2022-10-02T08:30:31.856Z,11.00
2022-10-02T08:31:31.901Z,10.70
2022-10-02T08:32:34.706Z,10.70
2022-10-02T08:33:31.803Z,10.70
2022-10-02T08:34:31.793Z,10.40
2022-10-02T08:35:31.791Z,10.30
2022-10-02T08:36:31.762Z,10.50
2022-10-02T08:37:31.753Z,10.40
2022-10-02T08:38:31.732Z,10.00
2022-10-02T08:39:31.736Z,10.20
2022-10-02T08:40:31.773Z,10.00
2022-10-02T08:41:31.743Z,10.30
2022-10-02T08:42:31.693Z,10.20
2022-10-02T08:43:31.683Z,9.80
2022-10-02T08:44:36.035Z,10.00
2022-10-02T08:45:31.701Z,9.90
2022-10-02T08:46:31.664Z,10.20
2022-10-02T08:47:31.670Z,9.90
2022-10-02T08:48:31.613Z,9.90
2022-10-02T08:49:31.601Z,9.60
2022-10-02T08:50:31.584Z,10.00
2022-10-02T08:51:31.583Z,9.80
2022-10-02T08:52:31.566Z,10.10
2022-10-02T08:53:31.544Z,10.00
2022-10-02T08:54:31.537Z,9.90
2022-10-02T08:55:31.529Z,9.80
2022-10-02T08:56:31.586Z,9.70
2022-10-02T08:57:31.492Z,10.10
2022-10-02T08:58:31.486Z,10.20
2022-10-02T08:59:31.475Z,10.00
2022-10-02T09:00:31.456Z,10.00
2022-10-02T09:01:31.436Z,10.10
2022-10-02T09:02:31.534Z,9.90
2022-10-02T09:03:31.416Z,10.10
2022-10-02T09:04:31.405Z,9.90
2022-10-02T09:05:31.395Z,9.70
2022-10-02T09:06:31.385Z,9.70
2022-10-02T09:07:31.407Z,10.10
2022-10-02T09:08:31.366Z,10.00
2022-10-02T09:09:31.357Z,10.10
2022-10-02T09:10:31.334Z,9.70
2022-10-02T09:11:31.337Z,9.80
2022-10-02T09:12:31.312Z,10.30
2022-10-02T09:13:31.275Z,10.00
2022-10-02T09:14:31.276Z,9.70
2022-10-02T09:15:31.255Z,9.90
2022-10-02T09:16:31.334Z,10.00
2022-10-02T09:17:31.280Z,9.80
2022-10-02T09:18:31.224Z,9.70
2022-10-02T09:19:31.217Z,10.10
2022-10-02T09:20:31.200Z,10.00
2022-10-02T09:21:31.189Z,9.80
2022-10-02T09:22:31.179Z,10.00
2022-10-02T09:23:31.177Z,9.80
2022-10-02T09:24:31.153Z,9.80
2022-10-02T09:25:31.133Z,9.80
2022-10-02T09:26:31.118Z,10.00
2022-10-02T09:27:31.107Z,9.60
2022-10-02T09:28:31.156Z,10.10
2022-10-02T09:29:31.077Z,10.00
2022-10-02T09:30:31.098Z,9.40
2022-10-02T09:31:31.084Z,9.60
2022-10-02T09:32:31.047Z,9.60
2022-10-02T09:33:31.036Z,9.60
2022-10-02T09:34:31.009Z,9.60
2022-10-02T09:35:31.000Z,9.40
2022-10-02T09:36:31.015Z,9.30
2022-10-02T09:37:30.979Z,9.60
2022-10-02T09:38:32.776Z,9.30
2022-10-02T09:39:30.951Z,9.40
2022-10-02T09:40:30.940Z,9.40
2022-10-02T09:41:30.923Z,9.30
2022-10-02T09:42:30.910Z,9.60
2022-10-02T09:43:30.889Z,9.50
2022-10-02T09:44:30.910Z,9.80
2022-10-02T09:45:30.894Z,9.70
2022-10-02T09:46:30.862Z,9.40
2022-10-02T09:47:30.847Z,9.30
2022-10-02T09:48:30.849Z,10.00
2022-10-02T09:49:30.831Z,9.40
2022-10-02T09:50:30.799Z,9.30
2022-10-02T09:51:30.784Z,9.00
2022-10-02T09:52:30.791Z,9.00
2022-10-02T09:53:30.762Z,9.20
2022-10-02T09:54:30.779Z,9.00
2022-10-02T09:55:30.743Z,9.00
2022-10-02T09:56:30.732Z,9.00
2022-10-02T09:57:30.726Z,8.50
2022-10-02T09:58:30.702Z,8.70
2022-10-02T09:59:30.709Z,9.20
2022-10-02T10:00:30.680Z,9.20
2022-10-02T10:01:30.657Z,8.80
2022-10-02T10:02:30.678Z,8.50
2022-10-02T10:03:30.625Z,8.60
2022-10-02T10:04:47.934Z,8.60
2022-10-02T10:05:31.612Z,8.40
2022-10-02T10:06:30.593Z,8.10
2022-10-02T10:07:30.583Z,8.50
2022-10-02T10:08:30.580Z,8.30
2022-10-02T10:09:30.562Z,8.40
2022-10-02T10:10:30.563Z,8.20
2022-10-02T10:11:30.531Z,8.00
2022-10-02T10:12:30.524Z,8.10
2022-10-02T10:13:30.511Z,8.10
2022-10-02T10:14:30.493Z,8.40
2022-10-02T10:15:30.484Z,8.40
2022-10-02T10:16:30.520Z,8.50
2022-10-02T10:17:30.473Z,8.60
2022-10-02T10:18:30.444Z,8.40
2022-10-02T10:19:30.454Z,8.40
2022-10-02T10:20:30.454Z,8.00
2022-10-02T10:21:30.444Z,8.10
2022-10-02T10:22:30.404Z,8.00
2022-10-02T10:23:30.386Z,7.90
2022-10-02T10:24:30.364Z,8.20
2022-10-02T10:25:30.355Z,8.40
2022-10-02T10:26:30.354Z,8.20
2022-10-02T10:27:30.325Z,8.00
2022-10-02T10:28:30.353Z,8.30
2022-10-02T10:29:30.303Z,8.50
2022-10-02T10:30:30.292Z,8.20
2022-10-02T10:31:30.322Z,8.10
2022-10-02T10:32:30.287Z,8.50
2022-10-02T10:33:30.267Z,8.60
2022-10-02T10:34:30.256Z,9.40
2022-10-02T10:35:30.246Z,9.50
2022-10-02T10:36:30.226Z,9.30
2022-10-02T10:37:30.227Z,9.50
2022-10-02T10:38:30.196Z,10.30
2022-10-02T10:39:30.189Z,10.30
2022-10-02T10:40:30.159Z,10.40
2022-10-02T10:41:30.157Z,11.20
2022-10-02T10:42:37.702Z,11.00
2022-10-02T10:43:31.136Z,11.00
2022-10-02T10:44:30.112Z,11.50
2022-10-02T10:45:30.150Z,11.90
2022-10-02T10:46:30.090Z,11.90
2022-10-02T10:47:30.077Z,12.00
2022-10-02T10:48:30.091Z,12.10
2022-10-02T10:49:30.123Z,12.30
2022-10-02T10:50:30.056Z,12.30
2022-10-02T10:51:30.028Z,12.30
2022-10-02T10:52:30.032Z,12.40
2022-10-02T10:53:30.018Z,12.20
2022-10-02T10:54:29.979Z,12.00
2022-10-02T10:55:29.979Z,12.20
2022-10-02T10:56:29.957Z,11.80
2022-10-02T10:57:29.946Z,11.40
2022-10-02T10:58:29.947Z,11.30
2022-10-02T10:59:29.917Z,11.30
2022-10-02T11:00:29.897Z,11.30
2022-10-02T11:01:29.958Z,11.60
2022-10-02T11:02:29.888Z,11.30
2022-10-02T11:03:29.869Z,11.10
2022-10-02T11:04:29.860Z,10.80
2022-10-02T11:05:29.843Z,11.30
2022-10-02T11:06:29.850Z,10.70
2022-10-02T11:07:29.818Z,10.90
2022-10-02T11:08:29.818Z,11.10
2022-10-02T11:09:29.809Z,10.70
2022-10-02T11:10:29.771Z,11.20
2022-10-02T11:11:29.767Z,11.00
2022-10-02T11:12:29.754Z,11.10
2022-10-02T11:13:29.739Z,10.50
2022-10-02T11:14:29.736Z,10.50
2022-10-02T11:15:29.711Z,10.80
2022-10-02T11:16:29.779Z,10.30
2022-10-02T11:17:29.718Z,10.10
2022-10-02T11:18:30.500Z,10.10
2022-10-02T11:19:29.651Z,9.80
2022-10-02T11:20:29.664Z,10.40
2022-10-02T11:21:29.620Z,10.50
2022-10-02T11:22:29.607Z,10.30
2022-10-02T11:23:29.769Z,10.50
2022-10-02T11:24:29.590Z,10.30
2022-10-02T11:25:29.614Z,10.40
2022-10-02T11:26:29.559Z,10.40
2022-10-02T11:27:29.622Z,10.60
2022-10-02T11:28:29.666Z,10.70
2022-10-02T11:29:29.538Z,11.60
2022-10-02T11:30:29.522Z,11.00
2022-10-02T11:31:29.521Z,11.00
2022-10-02T11:32:29.492Z,11.40
2022-10-02T11:33:29.502Z,11.80
2022-10-02T11:34:29.462Z,11.30
2022-10-02T11:35:29.461Z,11.80
2022-10-02T11:36:29.448Z,11.30
2022-10-02T11:37:29.412Z,11.40
2022-10-02T11:38:29.443Z,11.40
2022-10-02T11:39:29.390Z,11.90
2022-10-02T11:40:29.379Z,11.20
2022-10-02T11:41:29.372Z,11.50
2022-10-02T11:42:29.351Z,12.00
2022-10-02T11:43:29.351Z,12.00
2022-10-02T11:44:29.332Z,11.80
2022-10-02T11:45:29.387Z,11.90
2022-10-02T11:46:29.331Z,11.60
2022-10-02T11:47:29.315Z,12.00
2022-10-02T11:48:29.274Z,11.90
2022-10-02T11:49:29.267Z,11.90
2022-10-02T11:50:29.256Z,12.10
2022-10-02T11:51:29.243Z,11.80
2022-10-02T11:52:29.221Z,12.20
2022-10-02T11:53:29.222Z,11.90
2022-10-02T11:54:29.194Z,12.40
2022-10-02T11:55:29.193Z,12.40
2022-10-02T11:56:29.183Z,12.10
2022-10-02T11:57:29.167Z,12.20
2022-10-02T11:58:29.146Z,12.00
2022-10-02T11:59:29.146Z,12.40
2022-10-02T12:00:29.123Z,12.10
2022-10-02T12:01:29.164Z,12.10
2022-10-02T12:02:29.184Z,11.70
2022-10-02T12:03:29.128Z,11.90
2022-10-02T12:04:29.074Z,11.50
2022-10-02T12:05:29.062Z,11.40
2022-10-02T12:06:29.065Z,10.70
2022-10-02T12:07:29.045Z,10.70
2022-10-02T12:08:29.023Z,11.20
2022-10-02T12:09:29.005Z,11.10
2022-10-02T12:10:28.997Z,10.90
2022-10-02T12:11:28.984Z,10.30
2022-10-02T12:12:28.985Z,10.20
2022-10-02T12:13:28.953Z,10.80
2022-10-02T12:14:28.945Z,10.20
2022-10-02T12:15:28.936Z,10.00
2022-10-02T12:16:28.963Z,10.70
2022-10-02T12:17:28.906Z,10.20
2022-10-02T12:18:28.904Z,10.10
2022-10-02T12:19:28.878Z,9.90
2022-10-02T12:20:28.864Z,9.90
2022-10-02T12:21:28.854Z,9.80
2022-10-02T12:22:28.956Z,10.60
2022-10-02T12:23:28.836Z,9.80
2022-10-02T12:24:28.817Z,9.50
2022-10-02T12:25:28.807Z,9.60
2022-10-02T12:26:28.785Z,10.10
2022-10-02T12:27:28.777Z,9.50
2022-10-02T12:28:28.821Z,9.30
2022-10-02T12:29:28.778Z,9.50
2022-10-02T12:30:28.728Z,9.30
2022-10-02T12:31:28.788Z,9.40
2022-10-02T12:32:28.756Z,9.40
2022-10-02T12:33:28.719Z,9.20
2022-10-02T12:34:28.689Z,9.20
2022-10-02T12:35:28.666Z,9.20
2022-10-02T12:36:28.658Z,8.90
2022-10-02T12:37:28.638Z,8.50
2022-10-02T12:38:28.624Z,8.80
2022-10-02T12:39:28.628Z,8.90
2022-10-02T12:40:28.672Z,8.70
2022-10-02T12:41:28.589Z,8.00
2022-10-02T12:42:28.579Z,8.60
2022-10-02T12:43:28.572Z,8.50
2022-10-02T12:44:28.558Z,9.00
2022-10-02T12:45:28.581Z,7.80
2022-10-02T12:46:28.532Z,7.80
2022-10-02T12:47:28.514Z,7.70
2022-10-02T12:48:28.498Z,8.00
2022-10-02T12:49:28.538Z,7.80
2022-10-02T12:50:28.467Z,8.00
2022-10-02T12:51:28.457Z,7.80
2022-10-02T12:52:28.453Z,7.90
2022-10-02T12:53:28.438Z,8.10
2022-10-02T12:54:28.418Z,8.10
2022-10-02T12:55:28.431Z,7.90
2022-10-02T12:56:28.401Z,7.80